createdAt,value
2023-03-12T00:04:18.984Z,11.7
2023-03-12T00:10:02.455Z,11.71
2023-03-12T00:15:46.050Z,11.76
2023-03-12T00:21:29.832Z,11.69
2023-03-12T00:27:13.571Z,11.68
2023-03-12T00:32:57.281Z,11.68
2023-03-12T00:38:40.969Z,11.59
2023-03-12T00:44:24.822Z,11.59
2023-03-12T00:50:09.709Z,11.51
2023-03-12T00:55:53.471Z,11.47
2023-03-12T01:01:37.219Z,11.45
2023-03-12T01:07:21.204Z,11.42
2023-03-12T01:13:05.761Z,11.4
2023-03-12T01:18:49.564Z,11.43
2023-03-12T01:24:33.214Z,11.38
2023-03-12T01:30:17.125Z,11.42
2023-03-12T01:36:02.811Z,11.37
2023-03-12T01:41:47.054Z,11.38
2023-03-12T01:47:30.844Z,11.38
2023-03-12T01:53:14.671Z,11.35
2023-03-12T01:59:00.728Z,11.33
2023-03-12T02:04:44.939Z,11.29
2023-03-12T02:10:28.679Z,11.23
2023-03-12T02:16:13.404Z,11.24
2023-03-12T02:21:58.292Z,11.2
2023-03-12T02:27:42.032Z,11.21
2023-03-12T02:33:26.619Z,11.2
2023-03-12T02:39:11.270Z,11.17
2023-03-12T02:44:55.248Z,11.17
2023-03-12T02:50:38.840Z,11.17
2023-03-12T02:56:22.728Z,11.17
2023-03-12T03:02:07.411Z,11.21
2023-03-12T03:07:51.182Z,11.17
2023-03-12T03:13:35.847Z,11.16
2023-03-12T03:19:19.658Z,11.18
2023-03-12T03:25:03.974Z,11.16
2023-03-12T03:30:47.828Z,11.15
2023-03-12T03:36:32.841Z,11.15
2023-03-12T03:42:16.495Z,11.19
2023-03-12T03:48:01.079Z,11.16
2023-03-12T03:53:44.709Z,11.15
2023-03-12T03:59:28.550Z,11.15
2023-03-12T04:05:12.688Z,11.17
2023-03-12T04:10:56.860Z,11.2
2023-03-12T04:16:40.546Z,11.25
2023-03-12T04:22:25.006Z,11.22
2023-03-12T04:28:08.800Z,11.21
2023-03-12T04:33:53.501Z,11.2
2023-03-12T04:39:37.338Z,11.23
2023-03-12T04:45:21.155Z,11.23
2023-03-12T04:51:05.464Z,11.22
2023-03-12T04:56:50.081Z,11.23
2023-03-12T05:02:33.807Z,11.21
2023-03-12T05:08:17.686Z,11.23
2023-03-12T05:14:01.270Z,11.23
2023-03-12T05:19:45.283Z,11.21
2023-03-12T05:25:28.841Z,11.24
2023-03-12T05:31:13.041Z,11.23
2023-03-12T05:36:57.523Z,11.25
2023-03-12T05:42:42.311Z,11.26
2023-03-12T05:48:26.159Z,11.29
2023-03-12T05:54:10.221Z,11.3
2023-03-12T05:59:54.067Z,11.29
2023-03-12T06:05:37.943Z,11.31
2023-03-12T06:11:21.679Z,11.38
2023-03-12T06:17:05.816Z,11.44
2023-03-12T06:22:49.677Z,11.44
2023-03-12T06:28:34.009Z,11.45
2023-03-12T06:34:17.951Z,11.47
2023-03-12T06:40:01.509Z,11.55
2023-03-12T06:45:45.304Z,11.58
2023-03-12T06:51:29.091Z,11.63
2023-03-12T06:57:13.192Z,11.64
2023-03-12T07:02:57.050Z,11.71
2023-03-12T07:08:42.439Z,11.77
2023-03-12T07:14:28.976Z,11.86
2023-03-12T07:20:13.642Z,12.01
2023-03-12T07:25:57.382Z,12.16
2023-03-12T07:31:41.141Z,12.1
2023-03-12T07:37:25.286Z,12.14
2023-03-12T07:43:09.989Z,12.23
2023-03-12T07:48:55.246Z,12.31
2023-03-12T07:54:39.287Z,12.33
2023-03-12T08:00:23.721Z,12.37
2023-03-12T08:06:08.018Z,12.37
2023-03-12T08:11:51.880Z,12.41
2023-03-12T08:17:35.730Z,12.44
2023-03-12T08:23:19.858Z,12.48
2023-03-12T08:29:03.590Z,12.65
2023-03-12T08:34:47.264Z,12.7
2023-03-12T08:40:30.704Z,12.77
2023-03-12T08:46:14.608Z,13.05
2023-03-12T08:51:58.615Z,13.02
2023-03-12T08:57:42.215Z,13.01
2023-03-12T09:03:26.183Z,13.05
2023-03-12T09:09:10.161Z,13.11
2023-03-12T09:15:09.031Z,13.14
2023-03-12T09:20:47.845Z,13.16
2023-03-12T09:26:32.493Z,13.35
2023-03-12T09:32:16.163Z,13.49
2023-03-12T09:38:00.295Z,13.58
2023-03-12T09:43:47.605Z,13.8
2023-03-12T09:49:35.010Z,14.08
2023-03-12T09:55:20.081Z,14.29
2023-03-12T10:01:07.298Z,14.41
2023-03-12T10:06:54.640Z,14.38
2023-03-12T10:12:43.810Z,14.5
2023-03-12T10:18:37.115Z,14.58
2023-03-12T10:24:29.942Z,14.66
2023-03-12T10:30:17.946Z,14.83
2023-03-12T10:36:01.759Z,15.07
2023-03-12T10:41:46.583Z,15.13
2023-03-12T10:47:35.580Z,15.2
2023-03-12T10:53:29.699Z,15.46
2023-03-12T10:59:18.395Z,15.72
2023-03-12T11:05:07.163Z,15.9
2023-03-12T11:10:50.806Z,16.24
2023-03-12T11:16:34.664Z,16.31
2023-03-12T11:22:23.593Z,16.29
2023-03-12T11:28:12.379Z,16.1
2023-03-12T11:33:58.323Z,16.54
2023-03-12T11:39:47.286Z,16.7
2023-03-12T11:45:35.928Z,16.66
2023-03-12T11:51:25.909Z,17
2023-03-12T11:57:14.502Z,17.29
2023-03-12T12:03:12.238Z,17.13
2023-03-12T12:09:04.454Z,17.32
2023-03-12T12:14:54.178Z,17.32
2023-03-12T12:20:43.632Z,17.07
2023-03-12T12:26:32.510Z,17.07
2023-03-12T12:32:17.783Z,17.36
2023-03-12T12:38:04.838Z,17.42
2023-03-12T12:43:49.334Z,17.18
2023-03-12T12:49:36.121Z,17.04
2023-03-12T12:55:24.328Z,16.95
2023-03-12T13:01:09.010Z,16.88
2023-03-12T13:07:01.199Z,17.17
2023-03-12T13:12:50.321Z,17.42
2023-03-12T13:18:34.042Z,17.47
2023-03-12T13:24:22.473Z,17.44
2023-03-12T13:30:18.190Z,17.62
2023-03-12T13:36:11.004Z,17.7
2023-03-12T13:41:55.252Z,17.86
2023-03-12T13:47:42.263Z,18.11
2023-03-12T13:53:27.659Z,18.3
2023-03-12T13:59:15.424Z,18.29
2023-03-12T14:05:06.502Z,17.96
2023-03-12T14:10:56.111Z,18.19
2023-03-12T14:16:41.891Z,18.14
2023-03-12T14:22:29.618Z,17.83
2023-03-12T14:28:16.951Z,17.76
2023-03-12T14:34:03.826Z,18.04
2023-03-12T14:39:50.958Z,17.95
2023-03-12T14:45:39.212Z,18.18
2023-03-12T14:51:24.970Z,18.27
2023-03-12T14:57:12.662Z,18.07
2023-03-12T15:02:58.552Z,17.97
2023-03-12T15:08:43.096Z,18.17
2023-03-12T15:14:28.447Z,18.09
2023-03-12T15:20:15.256Z,18.11
2023-03-12T15:26:15.875Z,18.04
2023-03-12T15:32:00.338Z,18.04
2023-03-12T15:37:49.294Z,18.06
2023-03-12T15:43:32.965Z,17.95
2023-03-12T15:49:20.505Z,17.71
2023-03-12T15:55:20.226Z,17.57
2023-03-12T16:01:12.607Z,17.43
2023-03-12T16:06:56.992Z,17.35
2023-03-12T16:12:41.122Z,17.32
2023-03-12T16:18:24.864Z,17.17
2023-03-12T16:24:09.116Z,17.07
2023-03-12T16:29:52.803Z,16.96
2023-03-12T16:35:36.446Z,16.89
2023-03-12T16:41:20.332Z,16.79
2023-03-12T16:47:04.006Z,16.71
2023-03-12T16:52:49.002Z,16.6
2023-03-12T16:58:32.894Z,16.5
2023-03-12T17:04:16.757Z,16.38
2023-03-12T17:10:00.849Z,16.31
2023-03-12T17:15:45.588Z,16.27
2023-03-12T17:21:29.542Z,16.17
2023-03-12T17:27:15.361Z,16.06
2023-03-12T17:33:04.668Z,16.04
2023-03-12T17:38:50.691Z,15.97
2023-03-12T17:44:35.606Z,15.89
2023-03-12T17:50:20.329Z,15.82
2023-03-12T17:56:04.455Z,15.74
2023-03-12T18:01:48.302Z,15.64
2023-03-12T18:07:31.860Z,15.56
2023-03-12T18:13:15.974Z,15.52
2023-03-12T18:18:59.790Z,15.49
2023-03-12T18:24:43.531Z,15.4
2023-03-12T18:30:27.360Z,15.36
2023-03-12T18:36:11.812Z,15.33
2023-03-12T18:41:55.512Z,15.28
2023-03-12T18:47:39.210Z,15.18
2023-03-12T18:53:23.202Z,15.13
2023-03-12T18:59:06.977Z,15.06
2023-03-12T19:04:51.093Z,15.01
2023-03-12T19:10:40.274Z,14.98
2023-03-12T19:16:24.414Z,14.95
2023-03-12T19:22:08.617Z,14.92
2023-03-12T19:27:52.351Z,14.88
2023-03-12T19:33:36.423Z,14.84
2023-03-12T19:39:21.300Z,14.8
2023-03-12T19:45:05.857Z,14.78
2023-03-12T19:50:49.368Z,14.74
2023-03-12T19:56:33.174Z,14.74
2023-03-12T20:02:16.920Z,14.7
2023-03-12T20:08:00.856Z,14.65
2023-03-12T20:13:45.108Z,14.64
2023-03-12T20:19:28.711Z,14.58
2023-03-12T20:25:12.999Z,14.56
2023-03-12T20:30:56.819Z,14.52
2023-03-12T20:36:40.612Z,14.51
2023-03-12T20:42:24.164Z,14.49
2023-03-12T20:48:08.150Z,14.45
2023-03-12T20:53:52.015Z,14.42
2023-03-12T20:59:42.081Z,14.43
2023-03-12T21:05:26.287Z,14.41
2023-03-12T21:11:10.319Z,14.41
2023-03-12T21:16:54.170Z,14.36
2023-03-12T21:22:38.177Z,14.34
2023-03-12T21:28:22.062Z,14.33
2023-03-12T21:34:07.439Z,14.3
2023-03-12T21:39:52.745Z,14.28
2023-03-12T21:45:36.379Z,14.27
2023-03-12T21:51:21.032Z,14.26
2023-03-12T21:57:05.109Z,14.25
2023-03-12T22:02:48.856Z,14.25
2023-03-12T22:08:34.039Z,14.25
2023-03-12T22:14:17.974Z,14.26
2023-03-12T22:20:01.649Z,14.23
2023-03-12T22:25:45.502Z,14.25
2023-03-12T22:31:29.459Z,14.26
2023-03-12T22:37:13.303Z,14.26
2023-03-12T22:42:56.920Z,14.27
2023-03-12T22:48:40.626Z,14.26
2023-03-12T22:54:24.494Z,14.26
2023-03-12T23:00:09.611Z,14.26
2023-03-12T23:05:53.174Z,14.39
2023-03-12T23:11:37.027Z,14.35
2023-03-12T23:17:20.811Z,14.34
2023-03-12T23:23:05.654Z,14.28
2023-03-12T23:28:49.657Z,14.25
2023-03-12T23:34:33.614Z,14.24
2023-03-12T23:40:17.715Z,14.26
2023-03-12T23:46:02.494Z,14.23
2023-03-12T23:51:46.408Z,14.21
2023-03-12T23:57:30.128Z,14.19
